Overview Statistics Trail Chart Weather Telemetry Raw packets
 

This is the latest recevied telemetry packets stored in our database for station/object DL4LIF-8. If no packets are shown the sender has not sent any telemetry packets the latest 10 day(s).

Telemetry packets is used to share measurements like repeteater parameters, battery voltage, radiation readings (or any other measurements).

<< 1 2 3 4 >>
Time Press* Temp.in* Hum* QNH* Temp.out*
1788567345 1012.3 hPa 16.1 C deg 60.4 % 1012.5 hPa 0 C deg
1788565530 1012 hPa 16.3 C deg 60.1 % 1012.1 hPa 0 C deg
1788560085 1011.3 hPa 17 C deg 59.6 % 1011.4 hPa 0 C deg
1788558270 1011 hPa 17.3 C deg 59.5 % 1011.1 hPa 0 C deg
1788556453 1010.7 hPa 17.6 C deg 59.5 % 1010.8 hPa 0 C deg
1788554638 1010.6 hPa 17.9 C deg 59.9 % 1010.8 hPa 0 C deg
1788552822 1010.7 hPa 18.2 C deg 60.4 % 1010.8 hPa 0 C deg
1788551005 1010.3 hPa 18.5 C deg 60.6 % 1010.5 hPa 0 C deg
1788549194 1009.9 hPa 18.7 C deg 60.6 % 1010 hPa 0 C deg
1788546603 1009.2 hPa 19.1 C deg 60.8 % 1009.4 hPa 0 C deg
1788546603 1009.2 hPa 19.1 C deg 60.8 % 1009.4 hPa 0 C deg
1788544787 1008.9 hPa 19.3 C deg 61.2 % 1009 hPa 0 C deg
1788542969 1008.3 hPa 19.5 C deg 61.5 % 1008.4 hPa 0 C deg
1788542969 1008.3 hPa 19.5 C deg 61.5 % 1008.4 hPa 0 C deg
1788541154 1007.9 hPa 19.7 C deg 61.7 % 1008.1 hPa 0 C deg
1788539343 1007.6 hPa 19.9 C deg 61.9 % 1007.7 hPa 0 C deg
1788537525 1007.1 hPa 20 C deg 61.9 % 1007.2 hPa 0 C deg
1788533899 1006.4 hPa 20.2 C deg 62.4 % 1006.5 hPa 0 C deg
1788532085 1007 hPa 20.2 C deg 62.6 % 1007.2 hPa 0 C deg
1788528451 1006 hPa 20.1 C deg 62.3 % 1006.2 hPa 0 C deg
1788524821 1006.8 hPa 19.8 C deg 61.8 % 1006.9 hPa 0 C deg
1788523004 1006.2 hPa 19.7 C deg 61.5 % 1006.4 hPa 0 C deg
1788521189 1005 hPa 19.4 C deg 61.2 % 1005.1 hPa 0 C deg
1788519406 1005.3 hPa 19.3 C deg 60.7 % 1005.4 hPa 0 C deg
1788517558 1005.8 hPa 19 C deg 60.6 % 1005.9 hPa 0 C deg
*Used Equation Coefficients:
Press: 0, 1, 0
Temp.in: 0, 1, 0
Hum: 0, 1, 0
QNH: 0, 1, 0
Temp.out: 0, 1, 0

  • The parameter names for the analog channels will be Value1, Value2, Value3 (up to Value5) if station has not sent a PARAM-packet that specifies the parameter names for each analog channel.
  • Each analog value is a decimal number between 000 and 255 (according to APRS specifications). The receiver use the telemetry equation coefficientsto to restore the original sensor values. If no EQNS-packet with equation coefficients is sent we will show the values as is (this corresponds to the equation coefficients a=0, b=1 and c=0).
    The sent equation coefficients is used in the equation: a * value2 + b * value + c.
  • The units for the analog values will not be shown if station has not sent a UNIT-packet specifying what unit's to use.
  • The parameter names for the digital bits will be Bit1, Bit2, Bit3 (up to Bit8) if station has not sent a PARAM-packet that specifies the parameter names for each digital bit.
  • All bit labels will be named "On" if station has not sent a UNIT-packet that specifies the label of each bit.
  • A bit is considered to be On when the bit is 1 if station has not sent a BITS-packet that specifies another "Bit sense" (a BITS-packet specify the state of the bits that match the BIT labels)